Time;durP1;ratioP1;P1;durP2;ratioP2;P2;SDS_P1;SDS_P2;PMS_P1;PMS_P2;Temp;Humidity;BMP_temperature;BMP_pressure;BME280_temperature;BME280_humidity;BME280_pressure;Samples;Min_cycle;Max_cycle;Signal;HPM_P1;HPM_P2
2022/04/14 00:00:31;;;;;;;27.15;17.67;;;;;;;;;;4955977;28;94424;-65
2022/04/14 00:02:57;;;;;;;29.73;17.73;;;;;;;;;;4955841;28;92425;-64
2022/04/14 00:05:25;;;;;;;33.60;19.77;;;;;;;;;;4956447;28;91935;-65
2022/04/14 00:07:51;;;;;;;30.83;19.63;;;;;;;;;;4955467;28;94537;-65
2022/04/14 00:10:17;;;;;;;34.80;20.70;;;;;;;;;;4956212;28;92516;-65
2022/04/14 00:12:44;;;;;;;32.63;20.65;;;;;;;;;;4955307;28;94775;-66
2022/04/14 00:15:11;;;;;;;34.58;20.25;;;;;;;;;;4958711;28;93711;-65
2022/04/14 00:17:37;;;;;;;36.40;21.42;;;;;;;;;;4944446;28;94177;-65
2022/04/14 00:20:06;;;;;;;36.03;21.60;;;;;;;;;;4955128;28;93049;-65
2022/04/14 00:22:35;;;;;;;32.90;20.42;;;;;;;;;;4954978;28;92527;-65
2022/04/14 00:25:02;;;;;;;33.53;22.47;;;;;;;;;;4956026;28;93021;-67
2022/04/14 00:27:29;;;;;;;36.15;22.77;;;;;;;;;;4956253;28;94625;-65
2022/04/14 00:29:55;;;;;;;33.25;21.95;;;;;;;;;;4956343;28;91973;-65
2022/04/14 00:32:21;;;;;;;31.58;20.85;;;;;;;;;;4955999;28;93358;-65
2022/04/14 00:34:47;;;;;;;28.45;19.98;;;;;;;;;;4955431;28;93472;-65
2022/04/14 00:37:17;;;;;;;35.47;21.80;;;;;;;;;;4956762;28;94865;-64
2022/04/14 00:39:44;;;;;;;38.53;23.48;;;;;;;;;;4955557;28;93247;-64
2022/04/14 00:42:10;;;;;;;37.20;23.00;;;;;;;;;;4955721;28;93017;-65
2022/04/14 00:44:37;;;;;;;33.30;21.98;;;;;;;;;;4957654;28;93011;-65
2022/04/14 00:47:04;;;;;;;37.45;24.02;;;;;;;;;;4954742;28;93828;-65
2022/04/14 00:49:31;;;;;;;36.35;23.05;;;;;;;;;;4955762;28;92419;-65
2022/04/14 00:51:59;;;;;;;32.20;22.05;;;;;;;;;;4955559;28;92996;-65
2022/04/14 00:54:25;;;;;;;38.30;25.08;;;;;;;;;;4953923;28;92796;-65
2022/04/14 00:56:51;;;;;;;37.67;23.55;;;;;;;;;;4951391;28;92485;-65
2022/04/14 00:59:18;;;;;;;35.53;23.42;;;;;;;;;;4957973;28;93351;-65
2022/04/14 01:01:44;;;;;;;43.92;24.83;;;;;;;;;;4953113;28;94956;-65
2022/04/14 01:04:11;;;;;;;39.22;24.65;;;;;;;;;;4955229;28;95500;-65
2022/04/14 01:06:38;;;;;;;36.72;24.17;;;;;;;;;;4955005;28;94411;-65
2022/04/14 01:09:21;;;;;;;41.03;26.77;;;;;;;;;;4954614;28;93102;-64
2022/04/14 01:11:51;;;;;;;45.28;27.20;;;;;;;;;;4955584;28;93059;-64
2022/04/14 01:14:27;;;;;;;37.70;26.17;;;;;;;;;;4954644;28;93062;-65
2022/04/14 01:16:53;;;;;;;44.67;26.33;;;;;;;;;;4954867;28;92479;-65
2022/04/14 01:19:20;;;;;;;39.67;26.90;;;;;;;;;;4954618;28;93181;-65
2022/04/14 01:21:52;;;;;;;40.05;26.58;;;;;;;;;;4949815;28;93469;-65
2022/04/14 01:24:18;;;;;;;41.72;26.30;;;;;;;;;;4954927;28;94075;-65
2022/04/14 01:26:45;;;;;;;32.72;23.02;;;;;;;;;;4953586;28;95739;-65
2022/04/14 01:29:22;;;;;;;36.13;24.88;;;;;;;;;;4954028;28;92488;-65
2022/04/14 01:31:49;;;;;;;32.97;22.15;;;;;;;;;;4954875;28;94324;-65
2022/04/14 01:34:15;;;;;;;39.40;23.33;;;;;;;;;;4954674;28;94445;-64
2022/04/14 01:36:41;;;;;;;39.45;24.25;;;;;;;;;;4954857;28;92569;-65
2022/04/14 01:39:10;;;;;;;41.63;25.83;;;;;;;;;;4954838;28;93218;-64
2022/04/14 01:41:40;;;;;;;36.55;25.58;;;;;;;;;;4954824;28;94543;-65
2022/04/14 01:44:06;;;;;;;43.70;25.63;;;;;;;;;;4957987;28;92267;-65
2022/04/14 01:46:32;;;;;;;46.45;28.88;;;;;;;;;;4954625;28;93596;-65
2022/04/14 01:48:59;;;;;;;45.50;28.63;;;;;;;;;;4954637;28;92446;-64
2022/04/14 01:51:26;;;;;;;48.95;28.83;;;;;;;;;;4953750;28;95205;-65
2022/04/14 01:53:53;;;;;;;47.25;28.77;;;;;;;;;;4954365;28;94408;-65
2022/04/14 01:56:19;;;;;;;45.00;29.15;;;;;;;;;;4951708;28;92626;-64
2022/04/14 01:58:45;;;;;;;47.25;26.80;;;;;;;;;;4954317;28;93230;-65
2022/04/14 02:01:12;;;;;;;40.78;27.20;;;;;;;;;;4953750;28;93500;-65
2022/04/14 02:03:38;;;;;;;43.03;27.92;;;;;;;;;;4957401;28;93118;-66
2022/04/14 02:06:04;;;;;;;42.03;27.02;;;;;;;;;;4953752;28;93445;-65
2022/04/14 02:08:31;;;;;;;46.35;27.38;;;;;;;;;;4954063;28;93154;-64
2022/04/14 02:10:57;;;;;;;49.53;27.92;;;;;;;;;;4954297;28;92596;-65
2022/04/14 02:13:23;;;;;;;36.22;24.55;;;;;;;;;;4953832;28;93421;-64
2022/04/14 02:15:50;;;;;;;42.67;25.98;;;;;;;;;;4953550;28;94931;-65
2022/04/14 02:18:16;;;;;;;47.97;27.30;;;;;;;;;;4954304;28;95681;-65
2022/04/14 02:20:42;;;;;;;40.30;25.48;;;;;;;;;;4953263;28;93441;-65
2022/04/14 02:23:08;;;;;;;40.08;26.35;;;;;;;;;;4953865;28;92398;-67
2022/04/14 02:25:34;;;;;;;35.53;22.50;;;;;;;;;;4957152;28;93531;-65
2022/04/14 02:28:01;;;;;;;33.47;20.95;;;;;;;;;;4953181;28;93266;-64
2022/04/14 02:30:27;;;;;;;31.60;20.55;;;;;;;;;;4953234;28;93996;-65
2022/04/14 02:32:54;;;;;;;26.85;19.27;;;;;;;;;;4954525;28;93717;-65
2022/04/14 02:35:20;;;;;;;32.00;20.83;;;;;;;;;;4953763;28;92916;-64
2022/04/14 02:37:47;;;;;;;31.67;20.05;;;;;;;;;;4953834;28;94347;-66
2022/04/14 02:40:13;;;;;;;34.63;19.58;;;;;;;;;;4952204;28;95820;-65
2022/04/14 02:42:41;;;;;;;29.85;19.80;;;;;;;;;;4953863;28;92478;-66
2022/04/14 02:45:08;;;;;;;29.20;18.55;;;;;;;;;;4953745;28;93543;-66
2022/04/14 02:47:35;;;;;;;30.70;18.65;;;;;;;;;;4956429;28;93703;-65
2022/04/14 02:50:03;;;;;;;31.20;19.63;;;;;;;;;;4953689;28;93198;-65
2022/04/14 02:52:29;;;;;;;28.55;19.38;;;;;;;;;;4953722;28;93469;-65
2022/04/14 02:54:56;;;;;;;39.97;22.35;;;;;;;;;;4948852;28;92472;-65
2022/04/14 02:57:23;;;;;;;31.98;22.02;;;;;;;;;;4954440;28;93172;-65
2022/04/14 02:59:49;;;;;;;31.80;22.63;;;;;;;;;;4952945;28;93351;-65
2022/04/14 03:02:16;;;;;;;38.88;22.88;;;;;;;;;;4953482;28;92374;-65
2022/04/14 03:04:42;;;;;;;43.30;24.00;;;;;;;;;;4951903;28;94876;-64
2022/04/14 03:07:08;;;;;;;35.58;23.70;;;;;;;;;;4953100;28;92749;-65
2022/04/14 03:09:34;;;;;;;34.90;21.13;;;;;;;;;;4956365;28;92396;-66
2022/04/14 03:12:01;;;;;;;35.75;21.13;;;;;;;;;;4953235;28;93590;-64
2022/04/14 03:14:27;;;;;;;36.90;24.67;;;;;;;;;;4953234;28;92489;-64
2022/04/14 03:16:53;;;;;;;35.63;23.10;;;;;;;;;;4953572;28;93252;-66
2022/04/14 03:19:19;;;;;;;33.97;22.92;;;;;;;;;;4956507;28;93632;-64
2022/04/14 03:21:46;;;;;;;43.60;24.20;;;;;;;;;;4955462;28;91738;-65
2022/04/14 03:24:13;;;;;;;37.72;24.90;;;;;;;;;;4949627;28;92882;-65
2022/04/14 03:26:39;;;;;;;50.05;27.20;;;;;;;;;;4957345;28;95069;-65
2022/04/14 03:29:05;;;;;;;41.78;25.83;;;;;;;;;;4955263;28;94835;-65
2022/04/14 03:31:31;;;;;;;45.40;25.58;;;;;;;;;;4958519;28;95621;-66
2022/04/14 03:33:58;;;;;;;36.08;23.15;;;;;;;;;;4956659;28;92653;-65
2022/04/14 03:36:24;;;;;;;40.30;22.88;;;;;;;;;;4957148;28;93216;-64
2022/04/14 03:38:50;;;;;;;42.13;26.27;;;;;;;;;;4956368;28;93478;-65
2022/04/14 03:41:17;;;;;;;40.05;25.65;;;;;;;;;;4956668;28;92481;-65
2022/04/14 03:43:43;;;;;;;37.67;22.88;;;;;;;;;;4956292;28;94262;-65
2022/04/14 03:46:09;;;;;;;31.20;22.50;;;;;;;;;;4957943;28;94009;-65
2022/04/14 03:48:36;;;;;;;31.58;21.67;;;;;;;;;;4956266;28;92524;-65
2022/04/14 03:51:02;;;;;;;33.08;20.80;;;;;;;;;;4959923;28;94792;-65
2022/04/14 03:53:28;;;;;;;30.83;20.48;;;;;;;;;;4954933;28;95378;-65
2022/04/14 03:55:55;;;;;;;28.95;19.40;;;;;;;;;;4943827;28;96785;-65
2022/04/14 03:58:21;;;;;;;30.88;20.08;;;;;;;;;;4949257;28;93228;-65
2022/04/14 04:00:47;;;;;;;37.00;23.27;;;;;;;;;;4956617;28;92413;-66
2022/04/14 04:03:13;;;;;;;37.55;24.33;;;;;;;;;;4955905;28;94619;-65
2022/04/14 04:05:40;;;;;;;36.97;22.27;;;;;;;;;;4955235;28;93413;-65
2022/04/14 04:08:06;;;;;;;33.90;21.15;;;;;;;;;;4955602;28;94025;-65
2022/04/14 04:10:33;;;;;;;33.83;22.00;;;;;;;;;;4956263;28;93247;-65
2022/04/14 04:12:59;;;;;;;34.72;23.08;;;;;;;;;;4959013;28;93193;-65
2022/04/14 04:15:27;;;;;;;36.20;23.00;;;;;;;;;;4957137;28;92411;-65
2022/04/14 04:17:53;;;;;;;34.22;22.33;;;;;;;;;;4953618;28;95817;-65
2022/04/14 04:20:20;;;;;;;40.95;22.25;;;;;;;;;;4956301;28;92515;-65
2022/04/14 04:22:46;;;;;;;35.47;22.35;;;;;;;;;;4956165;28;93383;-65
2022/04/14 04:25:12;;;;;;;34.65;22.15;;;;;;;;;;4955704;28;93472;-65
2022/04/14 04:27:39;;;;;;;35.97;21.33;;;;;;;;;;4956198;28;92769;-65
2022/04/14 04:30:06;;;;;;;41.30;22.67;;;;;;;;;;4955467;28;92938;-65
2022/04/14 04:32:33;;;;;;;34.35;21.13;;;;;;;;;;4955459;28;93535;-65
2022/04/14 04:35:00;;;;;;;38.55;23.13;;;;;;;;;;4959253;28;91722;-66
2022/04/14 04:37:26;;;;;;;30.10;19.92;;;;;;;;;;4936983;28;93340;-65
2022/04/14 04:39:52;;;;;;;38.42;22.17;;;;;;;;;;4953552;28;92449;-65
2022/04/14 04:42:19;;;;;;;37.78;23.15;;;;;;;;;;4952529;28;96702;-65
2022/04/14 04:44:45;;;;;;;38.08;23.20;;;;;;;;;;4954772;28;93277;-65
2022/04/14 04:47:11;;;;;;;35.35;22.20;;;;;;;;;;4955317;28;92539;-65
2022/04/14 04:49:37;;;;;;;38.88;23.73;;;;;;;;;;4954987;28;93230;-65
2022/04/14 04:52:04;;;;;;;33.25;22.52;;;;;;;;;;4955324;28;93641;-65
2022/04/14 04:54:30;;;;;;;35.47;23.50;;;;;;;;;;4954874;28;93096;-65
2022/04/14 04:56:57;;;;;;;37.80;22.25;;;;;;;;;;4955642;28;93236;-65
2022/04/14 04:59:23;;;;;;;41.63;23.10;;;;;;;;;;4955503;28;93049;-65
2022/04/14 05:01:49;;;;;;;35.05;23.02;;;;;;;;;;4955131;28;92724;-65
2022/04/14 05:04:16;;;;;;;34.90;21.50;;;;;;;;;;4955291;28;93279;-65
2022/04/14 05:06:42;;;;;;;37.80;22.90;;;;;;;;;;4953980;28;95136;-65
2022/04/14 05:09:08;;;;;;;32.10;22.00;;;;;;;;;;4954935;28;95416;-65
2022/04/14 05:11:34;;;;;;;34.22;21.85;;;;;;;;;;4954789;28;93435;-65
2022/04/14 05:14:01;;;;;;;34.13;22.42;;;;;;;;;;4954523;28;92597;-65
2022/04/14 05:16:28;;;;;;;37.22;22.15;;;;;;;;;;4954839;28;93018;-65
2022/04/14 05:18:54;;;;;;;34.80;21.90;;;;;;;;;;4958025;28;93410;-65
2022/04/14 05:21:20;;;;;;;34.80;21.10;;;;;;;;;;4955549;28;94100;-65
2022/04/14 05:23:46;;;;;;;33.72;21.25;;;;;;;;;;4949267;28;92781;-66
2022/04/14 05:26:13;;;;;;;35.83;21.15;;;;;;;;;;4952241;28;93182;-65
2022/04/14 05:28:39;;;;;;;39.85;22.77;;;;;;;;;;4954319;28;93253;-65
2022/04/14 05:31:05;;;;;;;35.17;21.90;;;;;;;;;;4953725;28;95612;-65
2022/04/14 05:33:33;;;;;;;34.40;20.98;;;;;;;;;;4954571;28;92592;-65
2022/04/14 05:35:59;;;;;;;33.47;21.20;;;;;;;;;;4954064;28;93290;-64
2022/04/14 05:38:26;;;;;;;37.03;22.77;;;;;;;;;;4953973;28;93445;-64
2022/04/14 05:40:53;;;;;;;32.40;22.17;;;;;;;;;;4957508;28;92417;-65
2022/04/14 05:43:21;;;;;;;32.42;23.75;;;;;;;;;;4954730;28;94421;-64
2022/04/14 05:45:48;;;;;;;35.72;22.25;;;;;;;;;;4954852;28;92430;-65
2022/04/14 05:48:15;;;;;;;35.13;22.35;;;;;;;;;;4955219;28;94294;-66
2022/04/14 05:50:43;;;;;;;31.30;21.48;;;;;;;;;;4953414;28;93402;-67
2022/04/14 05:53:09;;;;;;;37.63;21.92;;;;;;;;;;4952875;28;92722;-65
2022/04/14 05:55:35;;;;;;;39.75;22.25;;;;;;;;;;4953513;28;95088;-67
2022/04/14 05:58:05;;;;;;;37.78;22.48;;;;;;;;;;4954212;28;94083;-67
2022/04/14 06:00:32;;;;;;;37.85;22.88;;;;;;;;;;4951025;28;92827;-65
2022/04/14 06:02:59;;;;;;;39.53;21.77;;;;;;;;;;4954743;28;93773;-65
2022/04/14 06:05:27;;;;;;;31.67;20.58;;;;;;;;;;4954508;28;92422;-65
2022/04/14 06:07:54;;;;;;;33.10;21.65;;;;;;;;;;4954314;28;93223;-65
2022/04/14 06:10:20;;;;;;;38.60;20.90;;;;;;;;;;4953848;28;93465;-68
2022/04/14 06:12:47;;;;;;;31.30;20.45;;;;;;;;;;4955557;28;91758;-65
2022/04/14 06:15:13;;;;;;;32.00;19.98;;;;;;;;;;4966310;28;92506;-65
2022/04/14 06:17:40;;;;;;;34.50;20.17;;;;;;;;;;4954705;28;94536;-64
2022/04/14 06:20:06;;;;;;;31.27;19.80;;;;;;;;;;4952416;28;94963;-65
2022/04/14 06:22:36;;;;;;;33.22;20.65;;;;;;;;;;4957864;28;96069;-65
2022/04/14 06:25:02;;;;;;;33.13;20.60;;;;;;;;;;4954200;28;92522;-64
2022/04/14 06:27:29;;;;;;;35.15;20.65;;;;;;;;;;4952230;28;93399;-67
2022/04/14 06:29:55;;;;;;;34.47;20.30;;;;;;;;;;4953660;28;93499;-65
2022/04/14 06:32:21;;;;;;;29.92;19.77;;;;;;;;;;4954061;28;92538;-65
2022/04/14 06:34:52;;;;;;;35.05;19.77;;;;;;;;;;4953737;28;92871;-65
2022/04/14 06:37:19;;;;;;;31.92;19.50;;;;;;;;;;4954450;28;92712;-66
2022/04/14 06:39:45;;;;;;;36.80;20.75;;;;;;;;;;4953420;28;92645;-64
2022/04/14 06:42:11;;;;;;;28.40;18.05;;;;;;;;;;4952338;28;93227;-66
2022/04/14 06:44:37;;;;;;;34.40;19.33;;;;;;;;;;4954625;28;95790;-65
2022/04/14 06:47:04;;;;;;;33.95;20.13;;;;;;;;;;4954749;28;96313;-66
2022/04/14 06:49:30;;;;;;;41.22;19.75;;;;;;;;;;4953986;28;94442;-65
2022/04/14 06:51:56;;;;;;;30.77;19.00;;;;;;;;;;4952892;28;92403;-65
2022/04/14 06:54:23;;;;;;;37.40;18.38;;;;;;;;;;4952631;28;92919;-65
2022/04/14 06:56:49;;;;;;;33.22;17.92;;;;;;;;;;4948411;28;93517;-65
2022/04/14 06:59:15;;;;;;;32.92;18.00;;;;;;;;;;4953440;28;92664;-66
2022/04/14 07:01:41;;;;;;;32.75;17.35;;;;;;;;;;4954239;28;93224;-66
2022/04/14 07:04:08;;;;;;;27.13;16.48;;;;;;;;;;4953204;28;93585;-65
2022/04/14 07:06:34;;;;;;;30.17;16.83;;;;;;;;;;4956037;28;92701;-66
2022/04/14 07:09:00;;;;;;;32.00;17.77;;;;;;;;;;4953492;28;96843;-66
2022/04/14 07:11:27;;;;;;;35.08;17.05;;;;;;;;;;4953960;28;92451;-65
2022/04/14 07:13:53;;;;;;;33.83;16.70;;;;;;;;;;4953541;28;92426;-64
2022/04/14 07:16:19;;;;;;;30.85;16.00;;;;;;;;;;4946291;28;93415;-65
2022/04/14 07:18:45;;;;;;;33.35;15.93;;;;;;;;;;4955088;28;92559;-65
2022/04/14 07:21:12;;;;;;;27.77;14.73;;;;;;;;;;4953860;28;93872;-66
2022/04/14 07:23:38;;;;;;;25.75;14.65;;;;;;;;;;4953176;28;93574;-65
2022/04/14 07:26:04;;;;;;;24.63;15.48;;;;;;;;;;4952927;28;91743;-65
2022/04/14 07:28:30;;;;;;;31.35;15.77;;;;;;;;;;4956384;28;92457;-66
2022/04/14 07:30:57;;;;;;;25.85;15.63;;;;;;;;;;4958325;28;92628;-66
2022/04/14 07:33:23;;;;;;;24.02;15.05;;;;;;;;;;4952048;28;94868;-65
2022/04/14 07:35:51;;;;;;;28.13;15.07;;;;;;;;;;4953308;28;94448;-65
2022/04/14 07:38:17;;;;;;;26.35;14.50;;;;;;;;;;4953408;28;92501;-66
2022/04/14 07:40:43;;;;;;;26.42;15.10;;;;;;;;;;4953342;28;93442;-66
2022/04/14 07:43:09;;;;;;;24.55;14.60;;;;;;;;;;4952939;28;93310;-66
2022/04/14 07:45:38;;;;;;;27.95;15.18;;;;;;;;;;4952439;28;93896;-65
2022/04/14 07:48:05;;;;;;;24.52;15.15;;;;;;;;;;4952091;28;94344;-66
2022/04/14 07:50:32;;;;;;;29.95;15.05;;;;;;;;;;4956432;28;92916;-65
2022/04/14 07:53:01;;;;;;;29.13;15.13;;;;;;;;;;4952527;28;93894;-66
2022/04/14 07:55:31;;;;;;;33.35;14.25;;;;;;;;;;4951845;28;94434;-65
2022/04/14 07:58:00;;;;;;;25.70;15.37;;;;;;;;;;4949779;28;96139;-66
2022/04/14 08:00:26;;;;;;;20.42;14.20;;;;;;;;;;4953233;28;96815;-65
2022/04/14 08:02:54;;;;;;;19.73;13.10;;;;;;;;;;4950496;28;93471;-66
2022/04/14 08:05:22;;;;;;;23.75;13.98;;;;;;;;;;4950528;28;92837;-65
2022/04/14 08:07:48;;;;;;;23.45;13.70;;;;;;;;;;4954061;28;93300;-65
2022/04/14 08:10:14;;;;;;;24.95;13.68;;;;;;;;;;4958368;28;94398;-66
2022/04/14 08:12:41;;;;;;;22.75;14.20;;;;;;;;;;4954305;28;93915;-65
2022/04/14 08:15:07;;;;;;;26.75;15.23;;;;;;;;;;4955908;28;92701;-66
2022/04/14 08:17:33;;;;;;;24.90;14.05;;;;;;;;;;4953514;28;92547;-65
2022/04/14 08:20:00;;;;;;;31.80;14.43;;;;;;;;;;4957118;28;94180;-66
2022/04/14 08:22:26;;;;;;;27.38;14.18;;;;;;;;;;4954748;28;95852;-66
2022/04/14 08:24:52;;;;;;;24.60;14.82;;;;;;;;;;4955905;28;92554;-65
2022/04/14 08:27:19;;;;;;;22.80;14.13;;;;;;;;;;4955835;28;93304;-65
2022/04/14 08:29:45;;;;;;;24.48;13.90;;;;;;;;;;4955274;28;93424;-66
2022/04/14 08:32:11;;;;;;;32.63;14.80;;;;;;;;;;4958927;28;92762;-66
2022/04/14 08:34:38;;;;;;;25.70;12.45;;;;;;;;;;4956130;28;93515;-65
2022/04/14 08:37:05;;;;;;;23.20;12.90;;;;;;;;;;4954982;28;92698;-65
2022/04/14 08:39:32;;;;;;;21.25;13.25;;;;;;;;;;4955646;28;93189;-66
2022/04/14 08:42:03;;;;;;;29.95;14.18;;;;;;;;;;4955568;28;93583;-65
2022/04/14 08:44:30;;;;;;;;;;;;;;;;;;4937212;28;92768;-64
2022/04/14 08:46:57;;;;;;;17.80;12.82;;;;;;;;;;4952898;28;123376;-65
2022/04/14 08:49:24;;;;;;;21.67;13.73;;;;;;;;;;4955983;28;94313;-66
2022/04/14 08:51:50;;;;;;;28.08;14.02;;;;;;;;;;4958421;28;93305;-66
2022/04/14 08:54:19;;;;;;;23.80;14.07;;;;;;;;;;4961398;28;92928;-65
2022/04/14 08:56:46;;;;;;;23.85;12.48;;;;;;;;;;4957930;28;92969;-64
2022/04/14 08:59:16;;;;;;;20.77;12.43;;;;;;;;;;4958537;28;93161;-65
2022/04/14 09:01:42;;;;;;;19.10;11.37;;;;;;;;;;4954479;28;96672;-65
2022/04/14 09:04:09;;;;;;;24.10;12.55;;;;;;;;;;4958779;28;91736;-65
2022/04/14 09:06:35;;;;;;;21.42;12.05;;;;;;;;;;4954217;28;92520;-67
2022/04/14 09:09:02;;;;;;;26.48;12.20;;;;;;;;;;4954135;28;93528;-64
2022/04/14 09:11:30;;;;;;;19.98;10.93;;;;;;;;;;4949695;28;95639;-66
2022/04/14 09:13:58;;;;;;;22.70;11.95;;;;;;;;;;4952417;28;96967;-69
2022/04/14 09:16:25;;;;;;;22.98;11.55;;;;;;;;;;4958355;28;93212;-66
2022/04/14 09:18:53;;;;;;;20.77;11.80;;;;;;;;;;4952583;28;93183;-64
2022/04/14 09:21:19;;;;;;;18.83;10.85;;;;;;;;;;4953833;28;93104;-72
2022/04/14 09:23:49;;;;;;;14.68;10.55;;;;;;;;;;4955083;28;92461;-66
2022/04/14 09:26:22;;;;;;;21.23;11.50;;;;;;;;;;4954636;28;93044;-64
2022/04/14 09:29:03;;;;;;;20.05;10.63;;;;;;;;;;4956467;28;92854;-65
2022/04/14 09:31:30;;;;;;;16.90;10.63;;;;;;;;;;4955362;28;92466;-65
2022/04/14 09:33:56;;;;;;;16.50;10.07;;;;;;;;;;4954747;28;93162;-65
2022/04/14 09:36:27;;;;;;;16.88;9.82;;;;;;;;;;4953425;28;96920;-65
2022/04/14 09:38:57;;;;;;;17.17;10.05;;;;;;;;;;4959265;28;92461;-66
2022/04/14 09:41:40;;;;;;;19.75;9.07;;;;;;;;;;4954935;28;95972;-65
2022/04/14 09:44:10;;;;;;;14.48;9.25;;;;;;;;;;4955991;28;92456;-65
2022/04/14 09:46:37;;;;;;;19.67;10.27;;;;;;;;;;4955634;28;92482;-65
2022/04/14 09:49:19;;;;;;;16.45;9.10;;;;;;;;;;4953096;28;93359;-65
2022/04/14 09:51:46;;;;;;;21.50;10.18;;;;;;;;;;4953791;28;92515;-66
2022/04/14 09:54:13;;;;;;;19.65;9.63;;;;;;;;;;4955498;28;93268;-65
2022/04/14 09:56:46;;;;;;;19.02;9.48;;;;;;;;;;4955052;28;93459;-66
2022/04/14 09:59:13;;;;;;;17.75;8.95;;;;;;;;;;4954631;28;92493;-65
2022/04/14 10:01:40;;;;;;;17.67;8.40;;;;;;;;;;4956393;28;94874;-66
2022/04/14 10:04:07;;;;;;;15.40;7.47;;;;;;;;;;4955696;28;92505;-65
2022/04/14 10:06:34;;;;;;;15.10;8.32;;;;;;;;;;4955608;28;93549;-66
2022/04/14 10:09:00;;;;;;;13.98;8.77;;;;;;;;;;4954354;28;93264;-65
2022/04/14 10:11:32;;;;;;;11.57;7.30;;;;;;;;;;4955368;28;92468;-66
2022/04/14 10:14:10;;;;;;;21.23;7.88;;;;;;;;;;4955007;28;95716;-68
2022/04/14 10:16:37;;;;;;;13.43;6.43;;;;;;;;;;4955583;28;94472;-65
2022/04/14 10:19:04;;;;;;;17.83;6.28;;;;;;;;;;4955490;28;91776;-65
2022/04/14 10:21:31;;;;;;;11.07;6.10;;;;;;;;;;4956937;28;93488;-65
2022/04/14 10:23:57;;;;;;;13.57;6.20;;;;;;;;;;4955461;28;92502;-64
2022/04/14 10:26:25;;;;;;;9.10;5.88;;;;;;;;;;4953041;28;94758;-63
2022/04/14 10:28:52;;;;;;;11.52;4.82;;;;;;;;;;4954401;28;93110;-64
2022/04/14 10:31:18;;;;;;;13.30;5.40;;;;;;;;;;4954343;28;92538;-64
2022/04/14 10:33:45;;;;;;;12.43;5.45;;;;;;;;;;4955111;28;93605;-64
2022/04/14 10:36:12;;;;;;;15.38;5.07;;;;;;;;;;4954381;28;93415;-65
2022/04/14 10:38:44;;;;;;;10.98;5.25;;;;;;;;;;4954924;28;92455;-65
2022/04/14 10:41:15;;;;;;;12.73;5.93;;;;;;;;;;4945651;28;93479;-64
2022/04/14 10:43:42;;;;;;;6.13;4.00;;;;;;;;;;4951054;28;92949;-65
2022/04/14 10:46:09;;;;;;;7.43;4.68;;;;;;;;;;4949140;28;93489;-65
2022/04/14 10:48:36;;;;;;;8.10;4.32;;;;;;;;;;4954476;28;93928;-65
2022/04/14 10:51:20;;;;;;;9.13;3.92;;;;;;;;;;4953012;28;94854;-65
2022/04/14 10:53:56;;;;;;;8.50;3.40;;;;;;;;;;4953390;28;95855;-66
2022/04/14 10:56:38;;;;;;;9.77;3.47;;;;;;;;;;4950955;28;93674;-65
2022/04/14 10:59:05;;;;;;;10.98;4.00;;;;;;;;;;4954729;28;92757;-66
2022/04/14 11:01:52;;;;;;;8.75;3.17;;;;;;;;;;4954027;28;94673;-65
2022/04/14 11:04:25;;;;;;;9.25;3.50;;;;;;;;;;4942053;28;93355;-65
2022/04/14 11:07:10;;;;;;;6.25;3.45;;;;;;;;;;4955574;28;92357;-64
2022/04/14 11:09:43;;;;;;;12.63;3.17;;;;;;;;;;4954274;28;93770;-64
2022/04/14 11:12:10;;;;;;;9.95;2.85;;;;;;;;;;4954739;28;92456;-65
2022/04/14 11:14:45;;;;;;;6.75;3.00;;;;;;;;;;4968751;28;93276;-64
2022/04/14 11:17:30;;;;;;;6.22;2.92;;;;;;;;;;4942067;28;95837;-66
2022/04/14 11:20:19;;;;;;;6.88;2.63;;;;;;;;;;4953169;28;92515;-65
2022/04/14 11:23:05;;;;;;;4.47;1.85;;;;;;;;;;4902198;28;93456;-66
2022/04/14 11:25:41;;;;;;;6.20;2.38;;;;;;;;;;4921229;28;93499;-66
2022/04/14 11:28:17;;;;;;;4.85;1.98;;;;;;;;;;4922348;28;92748;-66
2022/04/14 11:30:44;;;;;;;15.40;3.35;;;;;;;;;;4928465;28;93180;-66
2022/04/14 11:33:14;;;;;;;12.38;2.70;;;;;;;;;;4903611;28;92899;-66
2022/04/14 11:35:47;;;;;;;9.80;1.90;;;;;;;;;;4898268;28;94320;-66
2022/04/14 11:38:32;;;;;;;4.38;2.10;;;;;;;;;;4909592;28;93105;-65
2022/04/14 11:40:58;;;;;;;4.80;2.70;;;;;;;;;;4912824;28;92764;-65
2022/04/14 11:43:26;;;;;;;4.78;1.92;;;;;;;;;;4913167;28;95053;-66
2022/04/14 11:46:09;;;;;;;2.03;1.52;;;;;;;;;;4915264;28;94666;-63
2022/04/14 11:48:35;;;;;;;4.00;1.95;;;;;;;;;;4914816;28;92662;-63
2022/04/14 11:51:01;;;;;;;3.67;1.88;;;;;;;;;;4915998;28;93826;-63
2022/04/14 11:53:28;;;;;;;9.07;3.13;;;;;;;;;;4918963;28;93529;-63
2022/04/14 11:56:18;;;;;;;7.00;2.72;;;;;;;;;;4898001;28;95699;-63
2022/04/14 11:58:45;;;;;;;6.63;3.13;;;;;;;;;;4897649;28;93831;-63
2022/04/14 12:01:12;;;;;;;5.90;3.30;;;;;;;;;;4949218;28;91701;-63
2022/04/14 12:03:39;;;;;;;5.97;2.75;;;;;;;;;;4955831;28;92479;-64
2022/04/14 12:06:06;;;;;;;3.03;2.55;;;;;;;;;;4956593;28;93296;-64
2022/04/14 12:08:33;;;;;;;9.10;2.90;;;;;;;;;;4954061;28;96105;-63
2022/04/14 12:11:02;;;;;;;6.63;3.30;;;;;;;;;;4956900;28;95900;-66
2022/04/14 12:13:32;;;;;;;4.43;2.72;;;;;;;;;;4956169;28;93866;-63
2022/04/14 12:15:59;;;;;;;3.13;2.20;;;;;;;;;;4959929;28;92457;-65
2022/04/14 12:18:26;;;;;;;4.78;2.28;;;;;;;;;;4950548;28;93512;-65
2022/04/14 12:20:52;;;;;;;3.50;2.40;;;;;;;;;;4937814;28;92449;-65
2022/04/14 12:23:19;;;;;;;4.70;2.45;;;;;;;;;;4955004;28;93119;-65
2022/04/14 12:25:45;;;;;;;3.33;2.60;;;;;;;;;;4956740;28;92916;-65
2022/04/14 12:28:11;;;;;;;3.72;2.55;;;;;;;;;;4954972;28;92789;-66
2022/04/14 12:30:41;;;;;;;4.38;2.72;;;;;;;;;;4956835;28;94214;-66
2022/04/14 12:33:08;;;;;;;7.40;3.17;;;;;;;;;;4953888;28;97244;-64
2022/04/14 12:35:38;;;;;;;8.85;3.10;;;;;;;;;;4945260;28;92861;-65
2022/04/14 12:38:21;;;;;;;5.53;3.13;;;;;;;;;;4968981;28;94306;-65
2022/04/14 12:41:00;;;;;;;6.78;3.47;;;;;;;;;;4966459;28;92643;-64
2022/04/14 12:43:28;;;;;;;7.53;3.95;;;;;;;;;;4955770;28;93690;-64
2022/04/14 12:45:55;;;;;;;7.55;3.45;;;;;;;;;;4956218;28;93506;-64
2022/04/14 12:48:25;;;;;;;7.25;4.20;;;;;;;;;;4956182;28;92525;-65
2022/04/14 12:50:56;;;;;;;4.97;4.00;;;;;;;;;;4957051;28;94365;-65
2022/04/14 12:53:25;;;;;;;7.65;4.20;;;;;;;;;;4956350;28;94490;-64
2022/04/14 12:56:10;;;;;;;8.70;4.73;;;;;;;;;;4956507;28;92581;-64
2022/04/14 12:58:37;;;;;;;5.28;3.47;;;;;;;;;;4957829;28;95042;-65
2022/04/14 13:01:07;;;;;;;4.32;3.42;;;;;;;;;;4956286;28;92542;-64
2022/04/14 13:03:50;;;;;;;5.78;3.35;;;;;;;;;;4956697;28;93122;-64
2022/04/14 13:06:17;;;;;;;5.55;3.50;;;;;;;;;;4955462;28;94242;-63
2022/04/14 13:08:44;;;;;;;5.22;3.92;;;;;;;;;;4956235;28;92425;-64
2022/04/14 13:11:29;;;;;;;3.70;2.55;;;;;;;;;;4956887;28;92399;-64
2022/04/14 13:14:14;;;;;;;3.22;2.28;;;;;;;;;;4956250;28;93576;-66
2022/04/14 13:16:40;;;;;;;9.07;6.30;;;;;;;;;;4957121;28;91873;-64
2022/04/14 13:19:07;;;;;;;11.07;7.05;;;;;;;;;;4955985;28;92718;-64
2022/04/14 13:21:33;;;;;;;13.02;7.68;;;;;;;;;;4957175;28;93490;-64
2022/04/14 13:23:59;;;;;;;14.50;7.93;;;;;;;;;;4954262;28;94741;-64
2022/04/14 13:26:25;;;;;;;12.32;7.05;;;;;;;;;;4954621;28;93414;-65
2022/04/14 13:28:52;;;;;;;16.02;6.38;;;;;;;;;;4955674;28;92536;-63
2022/04/14 13:31:18;;;;;;;9.80;6.13;;;;;;;;;;4954179;28;93228;-64
2022/04/14 13:33:44;;;;;;;9.95;6.25;;;;;;;;;;4955363;28;93541;-63
2022/04/14 13:36:10;;;;;;;15.30;6.68;;;;;;;;;;4955714;28;92924;-64
2022/04/14 13:38:37;;;;;;;9.93;6.03;;;;;;;;;;4954387;28;92955;-64
2022/04/14 13:41:03;;;;;;;10.50;6.00;;;;;;;;;;4956358;28;92572;-64
2022/04/14 13:43:29;;;;;;;9.23;5.90;;;;;;;;;;4958612;28;92479;-64
2022/04/14 13:45:56;;;;;;;7.85;5.32;;;;;;;;;;4955420;28;93397;-65
2022/04/14 13:48:22;;;;;;;9.23;5.07;;;;;;;;;;4953940;28;95158;-64
2022/04/14 13:50:48;;;;;;;6.18;4.55;;;;;;;;;;4955604;28;95648;-64
2022/04/14 13:53:17;;;;;;;6.30;4.70;;;;;;;;;;4954907;28;93413;-64
2022/04/14 13:55:43;;;;;;;7.00;4.15;;;;;;;;;;4954993;28;92505;-64
2022/04/14 13:58:09;;;;;;;7.93;4.07;;;;;;;;;;4955428;28;92989;-64
2022/04/14 14:00:35;;;;;;;9.57;3.50;;;;;;;;;;4954230;28;93252;-64
2022/04/14 14:03:02;;;;;;;7.57;3.72;;;;;;;;;;4955108;28;92492;-63
2022/04/14 14:05:30;;;;;;;9.85;4.15;;;;;;;;;;4959947;28;93068;-64
2022/04/14 14:07:56;;;;;;;6.68;4.30;;;;;;;;;;4969048;28;92533;-64
2022/04/14 14:10:23;;;;;;;6.40;3.83;;;;;;;;;;4955648;28;94244;-65
2022/04/14 14:12:49;;;;;;;7.43;4.18;;;;;;;;;;4952697;28;95732;-64
2022/04/14 14:15:16;;;;;;;6.60;3.42;;;;;;;;;;4953454;28;92458;-64
2022/04/14 14:17:42;;;;;;;5.13;3.25;;;;;;;;;;4955209;28;92528;-64
2022/04/14 14:20:09;;;;;;;8.55;3.60;;;;;;;;;;4954378;28;93252;-64
2022/04/14 14:22:36;;;;;;;4.65;3.20;;;;;;;;;;4955469;28;92525;-64
2022/04/14 14:25:03;;;;;;;6.68;4.40;;;;;;;;;;4958221;28;93012;-64
2022/04/14 14:27:29;;;;;;;6.45;3.80;;;;;;;;;;4954608;28;92614;-64